Lake Arthur, Louisiana
Current Conditions -  °F | °C
As of 6:15 PM on Thursday 18 Dec 2014 (Local Time) from K3R7 Reporting Station
Overcast Overcast  
Wind Chill: 56°   Ceiling: 1300
Heat Index: 56°   Visibility: 10mi
Dew Point: 53°   Wind: 7mph
Humidity: 88%   Direction: 50°NE
Pressure: 30.09"   Gusts: NA
Location:  30.08°N, 92.67°W
Report Text: K3R7 190015Z AUTO 05006KT 10SM OVC013 14/12 A3009 RMK AO2 T01350115
Loading
Personal Weather Stations






























Interactive Weather Map New forecast layout! Learn more

10-Day Weather Forecast

Advertisements
Track Severe Weather on mobile